Sardinia Regina — IBMS — position and weather

sailwx.info

Track history (hours):
 
Tides and Currents Weather Stations Pressure Air Temp Water Temp Dewpoint Dewpoint Depression Visibility Wind Speed Wind Dir Waves Ship Positions

Sardinia Regina

Last reported at 2015-May-05 11:32 UTC. Time now 2015-May-06 01:22 UTC.
Position N 40°60' E 009°37'.

Length 146 m; draft 5 m.

Type: Passenger vessel. MMSI: 247079000.

Date/timePositionNaut miles runAvg speedWind from/ knotsBaromVisibWave heightAir tempDewpointWater temp
2015-May-05 11:32N 40°60' E 009°37'0 0.0
2015-May-05 10:23N 40°60' E 009°37'110 9.0
2015-May-04 22:09N 42°49' E 009°60'1016.6
2015-May-04 21:33N 42°58' E 010°03'1716.5
2015-May-04 20:33N 43°14' E 010°08'1616.3
2015-May-04 19:34N 43°30' E 010°13'5 4.7
2015-May-04 18:33N 43°33' E 010°18'0 0.0
2015-May-04 17:33N 43°33' E 010°18'0 0.0
2015-May-04 16:34N 43°33' E 010°18'4 4.5
2015-May-04 15:34N 43°30' E 010°14'1716.7
2015-May-04 14:33N 43°14' E 010°05'1917.6
2015-May-04 13:27N 42°57' E 009°53'24 8.0
2015-May-04 10:28N 42°42' E 009°28'1617.1
2015-May-04 09:33N 42°52' E 009°45'1716.9
2015-May-04 08:33N 43°05' E 009°59'1717.7
2015-May-04 07:33N 43°21' E 010°07'1413.8
2015-May-04 06:33N 43°33' E 010°17'0 0.4
2015-May-04 05:33N 43°33' E 010°18'2 1.7
2015-May-04 04:33N 43°32' E 010°16'1414.1
2015-May-04 03:33N 43°19' E 010°10'1615.3
2015-May-04 02:31N 43°03' E 010°04'1615.6
2015-May-04 01:29N 42°48' E 009°59'2317.1
2015-May-04 00:10N 42°25' E 009°55'4716.7
2015-May-03 21:20N 41°38' E 009°48'3016.4
2015-May-03 19:31N 41°09' E 009°44'1110.5
2015-May-03 18:31N 40°60' E 009°37'121 5.7
2015-May-02 21:19N 42°59' E 010°02'1317.1
2015-May-02 20:33N 43°11' E 010°06'1716.7
2015-May-02 19:33N 43°27' E 010°12'7 7.4
2015-May-02 18:33N 43°33' E 010°18'0 0.0
2015-May-02 17:33N 43°33' E 010°18'0 0.0
2015-May-02 16:33N 43°33' E 010°18'5 5.5
2015-May-02 15:33N 43°29' E 010°13'1717.2
2015-May-02 14:33N 43°13' E 010°05'2116.9
2015-May-02 13:20N 42°55' E 009°50'2 0.6
2015-May-02 09:25N 42°54' E 009°48'1516.9
2015-May-02 08:34N 43°06' E 009°60'1717.4
2015-May-02 07:33N 43°22' E 010°08'1313.0
2015-May-02 06:33N 43°33' E 010°18'0 0.4
2015-May-02 05:33N 43°33' E 010°18'2 1.5
2015-May-02 04:33N 43°32' E 010°17'1413.9
2015-May-02 03:33N 43°19' E 010°10'34 2.0
2015-May-01 10:10N 42°46' E 009°59'1517.0
2015-May-01 09:16N 43°01' E 010°01'1216.9
2015-May-01 08:34N 43°13' E 010°05'1616.3
2015-May-01 07:33N 43°28' E 010°12'7 6.6
2015-May-01 06:33N 43°33' E 010°18'0 0.0
2015-May-01 05:33N 43°33' E 010°18'4 4.3
2015-May-01 04:34N 43°30' E 010°14'1313.1
2015-May-01 03:34N 43°17' E 010°09'1413.4
2015-May-01 02:32N 43°04' E 010°04'1515.5
2015-May-01 01:34N 42°49' E 009°60'1716.6
2015-May-01 00:33N 42°33' E 009°55'3417.1
2015-Apr-30 22:33N 41°60' E 009°46'72 5.2
2015-Apr-30 08:33N 43°10' E 010°07'1717.2
2015-Apr-30 07:33N 43°27' E 010°12'8 7.8
2015-Apr-30 06:33N 43°33' E 010°18'0 0.0
2015-Apr-30 05:33N 43°33' E 010°18'4 3.5
2015-Apr-30 04:34N 43°31' E 010°15'1616.3
2015-Apr-30 03:34N 43°15' E 010°09'15 0.5
2015-Apr-28 21:32N 43°01' E 010°02'1716.9
2015-Apr-28 20:33N 43°17' E 010°09'1615.6
2015-Apr-28 19:33N 43°32' E 010°15'2 2.3
2015-Apr-28 18:33N 43°33' E 010°18'0 0.0
2015-Apr-28 17:33N 43°33' E 010°18'0 0.0
2015-Apr-28 16:33N 43°33' E 010°18'1212.1
2015-Apr-28 15:33N 43°23' E 010°10'1717.3
2015-Apr-28 14:33N 43°07' E 010°01'15 3.0
2015-Apr-28 09:33N 42°54' E 009°49'1717.1
2015-Apr-28 08:33N 43°08' E 010°02'1817.7
2015-Apr-28 07:34N 43°25' E 010°10'1010.0
2015-Apr-28 06:33N 43°33' E 010°18'0 0.0
2015-Apr-28 05:33N 43°33' E 010°18'2 2.4
2015-Apr-28 04:33N 43°31' E 010°16'1515.5
2015-Apr-28 03:33N 43°17' E 010°09'14 0.5
2015-Apr-26 21:10N 43°03' E 010°03'1016.0
2015-Apr-26 20:33N 43°13' E 010°06'1616.1
2015-Apr-26 19:33N 43°28' E 010°12'7 6.9
2015-Apr-26 18:33N 43°33' E 010°18'0 0.0
2015-Apr-26 17:33N 43°33' E 010°18'0 0.0
2015-Apr-26 16:33N 43°33' E 010°18'5 5.0
2015-Apr-26 15:33N 43°29' E 010°14'1818.0
2015-Apr-26 14:33N 43°13' E 010°04'1817.6
2015-Apr-26 13:33N 42°57' E 009°54'4 0.9
2015-Apr-26 09:32N 42°55' E 009°50'1616.2
2015-Apr-26 08:34N 43°09' E 009°60'1817.5
2015-Apr-26 07:33N 43°25' E 010°08'1111.0
2015-Apr-26 06:34N 43°33' E 010°18'0 0.0
2015-Apr-26 05:33N 43°33' E 010°18'2 1.8
2015-Apr-26 04:33N 43°32' E 010°16'1414.3
2015-Apr-26 03:34N 43°19' E 010°10'  
Track history (hours):
 
Tides and Currents Weather Stations Pressure Air Temp Water Temp Dewpoint Dewpoint Depression Visibility Wind Speed Wind Dir Waves Ship Positions

Sardinia Regina

Last reported at 2015-May-05 11:32 UTC. Time now 2015-May-06 01:22 UTC.
Position N 40°60' E 009°37'.

Length 146 m; draft 5 m.

Type: Passenger vessel. MMSI: 247079000.

Date/timePositionNaut miles runAvg speedWind from/ knotsBaromVisibWave heightAir tempDewpointWater temp
2015-May-05 11:32N 40°60' E 009°37'0 0.0
2015-May-05 10:23N 40°60' E 009°37'110 9.0
2015-May-04 22:09N 42°49' E 009°60'1016.6
2015-May-04 21:33N 42°58' E 010°03'1716.5
2015-May-04 20:33N 43°14' E 010°08'1616.3
2015-May-04 19:34N 43°30' E 010°13'5 4.7
2015-May-04 18:33N 43°33' E 010°18'0 0.0
2015-May-04 17:33N 43°33' E 010°18'0 0.0
2015-May-04 16:34N 43°33' E 010°18'4 4.5
2015-May-04 15:34N 43°30' E 010°14'1716.7
2015-May-04 14:33N 43°14' E 010°05'1917.6
2015-May-04 13:27N 42°57' E 009°53'24 8.0
2015-May-04 10:28N 42°42' E 009°28'1617.1
2015-May-04 09:33N 42°52' E 009°45'1716.9
2015-May-04 08:33N 43°05' E 009°59'1717.7
2015-May-04 07:33N 43°21' E 010°07'1413.8
2015-May-04 06:33N 43°33' E 010°17'0 0.4
2015-May-04 05:33N 43°33' E 010°18'2 1.7
2015-May-04 04:33N 43°32' E 010°16'1414.1
2015-May-04 03:33N 43°19' E 010°10'1615.3
2015-May-04 02:31N 43°03' E 010°04'1615.6
2015-May-04 01:29N 42°48' E 009°59'2317.1
2015-May-04 00:10N 42°25' E 009°55'4716.7
2015-May-03 21:20N 41°38' E 009°48'3016.4
2015-May-03 19:31N 41°09' E 009°44'1110.5
2015-May-03 18:31N 40°60' E 009°37'121 5.7
2015-May-02 21:19N 42°59' E 010°02'1317.1
2015-May-02 20:33N 43°11' E 010°06'1716.7
2015-May-02 19:33N 43°27' E 010°12'7 7.4
2015-May-02 18:33N 43°33' E 010°18'0 0.0
2015-May-02 17:33N 43°33' E 010°18'0 0.0
2015-May-02 16:33N 43°33' E 010°18'5 5.5
2015-May-02 15:33N 43°29' E 010°13'1717.2
2015-May-02 14:33N 43°13' E 010°05'2116.9
2015-May-02 13:20N 42°55' E 009°50'2 0.6
2015-May-02 09:25N 42°54' E 009°48'1516.9
2015-May-02 08:34N 43°06' E 009°60'1717.4
2015-May-02 07:33N 43°22' E 010°08'1313.0
2015-May-02 06:33N 43°33' E 010°18'0 0.4
2015-May-02 05:33N 43°33' E 010°18'2 1.5
2015-May-02 04:33N 43°32' E 010°17'1413.9
2015-May-02 03:33N 43°19' E 010°10'34 2.0
2015-May-01 10:10N 42°46' E 009°59'1517.0
2015-May-01 09:16N 43°01' E 010°01'1216.9
2015-May-01 08:34N 43°13' E 010°05'1616.3
2015-May-01 07:33N 43°28' E 010°12'7 6.6
2015-May-01 06:33N 43°33' E 010°18'0 0.0
2015-May-01 05:33N 43°33' E 010°18'4 4.3
2015-May-01 04:34N 43°30' E 010°14'1313.1
2015-May-01 03:34N 43°17' E 010°09'1413.4
2015-May-01 02:32N 43°04' E 010°04'1515.5
2015-May-01 01:34N 42°49' E 009°60'1716.6
2015-May-01 00:33N 42°33' E 009°55'3417.1
2015-Apr-30 22:33N 41°60' E 009°46'72 5.2
2015-Apr-30 08:33N 43°10' E 010°07'1717.2
2015-Apr-30 07:33N 43°27' E 010°12'8 7.8
2015-Apr-30 06:33N 43°33' E 010°18'0 0.0
2015-Apr-30 05:33N 43°33' E 010°18'4 3.5
2015-Apr-30 04:34N 43°31' E 010°15'1616.3
2015-Apr-30 03:34N 43°15' E 010°09'15 0.5
2015-Apr-28 21:32N 43°01' E 010°02'1716.9
2015-Apr-28 20:33N 43°17' E 010°09'1615.6
2015-Apr-28 19:33N 43°32' E 010°15'2 2.3
2015-Apr-28 18:33N 43°33' E 010°18'0 0.0
2015-Apr-28 17:33N 43°33' E 010°18'0 0.0
2015-Apr-28 16:33N 43°33' E 010°18'1212.1
2015-Apr-28 15:33N 43°23' E 010°10'1717.3
2015-Apr-28 14:33N 43°07' E 010°01'15 3.0
2015-Apr-28 09:33N 42°54' E 009°49'1717.1
2015-Apr-28 08:33N 43°08' E 010°02'1817.7
2015-Apr-28 07:34N 43°25' E 010°10'1010.0
2015-Apr-28 06:33N 43°33' E 010°18'0 0.0
2015-Apr-28 05:33N 43°33' E 010°18'2 2.4
2015-Apr-28 04:33N 43°31' E 010°16'1515.5
2015-Apr-28 03:33N 43°17' E 010°09'14 0.5
2015-Apr-26 21:10N 43°03' E 010°03'1016.0
2015-Apr-26 20:33N 43°13' E 010°06'1616.1
2015-Apr-26 19:33N 43°28' E 010°12'7 6.9
2015-Apr-26 18:33N 43°33' E 010°18'0 0.0
2015-Apr-26 17:33N 43°33' E 010°18'0 0.0
2015-Apr-26 16:33N 43°33' E 010°18'5 5.0
2015-Apr-26 15:33N 43°29' E 010°14'1818.0
2015-Apr-26 14:33N 43°13' E 010°04'1817.6
2015-Apr-26 13:33N 42°57' E 009°54'4 0.9
2015-Apr-26 09:32N 42°55' E 009°50'1616.2
2015-Apr-26 08:34N 43°09' E 009°60'1817.5
2015-Apr-26 07:33N 43°25' E 010°08'1111.0
2015-Apr-26 06:34N 43°33' E 010°18'0 0.0
2015-Apr-26 05:33N 43°33' E 010°18'2 1.8
2015-Apr-26 04:33N 43°32' E 010°16'1414.3
2015-Apr-26 03:34N 43°19' E 010°10'  

Dump ship's entire track history